Time;durP1;ratioP1;P1;durP2;ratioP2;P2;SDS_P1;SDS_P2;PMS_P1;PMS_P2;Temp;Humidity;BMP_temperature;BMP_pressure;BME280_temperature;BME280_humidity;BME280_pressure;Samples;Min_cycle;Max_cycle;Signal;HPM_P1;HPM_P2
2023/10/06 00:00:42;;;;;;;5.50;2.50;;;10.50;99.90;;;;;;5020723;28;20254;-80
2023/10/06 00:03:13;;;;;;;3.87;2.30;;;10.50;99.90;;;;;;5014544;28;20310;-80
2023/10/06 00:05:38;;;;;;;3.77;2.37;;;10.60;99.90;;;;;;5034748;28;20271;-80
2023/10/06 00:08:05;;;;;;;3.33;2.13;;;10.50;99.90;;;;;;5034842;28;20173;-80
2023/10/06 00:10:32;;;;;;;7.17;2.93;;;10.50;99.90;;;;;;5024961;28;20194;-80
2023/10/06 00:13:04;;;;;;;4.90;2.20;;;10.50;99.90;;;;;;5034009;28;20178;-80
2023/10/06 00:15:39;;;;;;;6.93;2.20;;;10.40;99.90;;;;;;5033027;28;20716;-80
2023/10/06 00:18:12;;;;;;;4.00;2.30;;;10.30;99.90;;;;;;5020539;28;20206;-80
2023/10/06 00:20:45;;;;;;;3.30;2.47;;;10.40;99.90;;;;;;5013954;28;20195;-81
2023/10/06 00:23:14;;;;;;;4.90;2.43;;;10.30;99.90;;;;;;5037623;28;20555;-80
2023/10/06 00:25:43;;;;;;;6.13;2.33;;;10.30;99.90;;;;;;5018523;28;20335;-80
2023/10/06 00:28:20;;;;;;;6.10;2.60;;;10.20;99.90;;;;;;5033463;28;20234;-80
2023/10/06 00:30:56;;;;;;;4.70;2.13;;;10.20;99.90;;;;;;5019318;28;20178;-81
2023/10/06 00:33:23;;;;;;;5.53;2.37;;;10.20;99.90;;;;;;5024908;28;20269;-80
2023/10/06 00:35:48;;;;;;;3.53;2.47;;;10.20;99.90;;;;;;5042244;28;20265;-80
2023/10/06 00:38:17;;;;;;;7.23;2.83;;;10.20;99.90;;;;;;5031622;28;20198;-80
2023/10/06 00:40:52;;;;;;;6.10;2.63;;;10.20;99.90;;;;;;5018354;28;20197;-77
2023/10/06 00:43:34;;;;;;;3.17;2.47;;;10.20;99.90;;;;;;5033287;28;20658;-80
2023/10/06 00:46:00;;;;;;;5.17;2.30;;;10.20;99.90;;;;;;5032382;28;20198;-82
2023/10/06 00:48:29;;;;;;;3.40;2.40;;;10.20;99.90;;;;;;5033513;28;20733;-81
2023/10/06 00:50:57;;;;;;;4.90;2.40;;;10.10;99.90;;;;;;5066619;23;20219;-80
2023/10/06 00:53:31;;;;;;;4.60;2.60;;;10.20;99.90;;;;;;5013807;28;20266;-80
2023/10/06 00:55:59;;;;;;;4.43;2.70;;;10.10;99.90;;;;;;5014383;28;20681;-80
2023/10/06 00:58:34;;;;;;;6.63;2.77;;;10.10;99.90;;;;;;5028761;28;20289;-81
2023/10/06 01:01:00;;;;;;;5.10;2.93;;;10.10;99.90;;;;;;5013794;28;20202;-80
2023/10/06 01:03:26;;;;;;;4.57;2.40;;;10.10;99.90;;;;;;5013613;28;20629;-81
2023/10/06 01:05:58;;;;;;;3.93;2.70;;;10.20;99.90;;;;;;5013583;28;20207;-80
2023/10/06 01:08:23;;;;;;;4.03;2.77;;;10.20;99.90;;;;;;5013671;28;20183;-81
2023/10/06 01:10:51;;;;;;;5.40;2.60;;;10.20;99.90;;;;;;5013274;28;20194;-81
2023/10/06 01:13:18;;;;;;;4.90;2.53;;;10.30;99.90;;;;;;5012405;28;20214;-81
2023/10/06 01:15:56;;;;;;;3.10;2.07;;;10.30;99.90;;;;;;5014161;28;20183;-80
2023/10/06 01:18:25;;;;;;;3.63;2.33;;;10.20;99.90;;;;;;5012332;28;20182;-80
2023/10/06 01:20:51;;;;;;;4.53;2.60;;;10.10;99.90;;;;;;5012362;28;20281;-81
2023/10/06 01:23:21;;;;;;;4.03;2.30;;;10.00;99.90;;;;;;5012042;28;20270;-81
2023/10/06 01:25:53;;;;;;;4.43;2.47;;;9.90;99.90;;;;;;5012037;28;20205;-81
2023/10/06 01:28:20;;;;;;;3.37;2.70;;;9.80;99.90;;;;;;5004390;28;20198;-78
2023/10/06 01:30:45;;;;;;;6.33;2.40;;;9.80;99.90;;;;;;5013431;28;20187;-81
2023/10/06 01:33:11;;;;;;;2.57;1.80;;;9.80;99.90;;;;;;5013215;28;20181;-81
2023/10/06 01:35:42;;;;;;;3.23;2.33;;;9.70;99.90;;;;;;5001468;28;20191;-80
2023/10/06 01:38:14;;;;;;;3.23;2.10;;;9.60;99.90;;;;;;5013800;28;20586;-80
2023/10/06 01:40:52;;;;;;;2.53;1.97;;;9.60;99.90;;;;;;5017796;28;20202;-80
2023/10/06 01:43:22;;;;;;;2.83;1.90;;;9.50;99.90;;;;;;5017373;28;20198;-81
2023/10/06 01:45:51;;;;;;;5.20;2.20;;;9.40;99.90;;;;;;5003753;28;20294;-80
2023/10/06 01:50:48;;;;;;;4.90;2.30;;;9.30;99.90;;;;;;5016804;28;20249;-79
2023/10/06 01:53:18;;;;;;;4.33;2.20;;;9.30;99.90;;;;;;5016523;28;20239;-80
2023/10/06 01:55:49;;;;;;;3.50;2.17;;;9.30;99.90;;;;;;4997598;28;20680;-80
2023/10/06 01:58:15;;;;;;;3.33;1.90;;;9.40;99.90;;;;;;5006506;28;20240;-80
2023/10/06 02:00:40;;;;;;;4.03;2.40;;;9.40;99.90;;;;;;5015832;28;20581;-80
2023/10/06 02:03:10;;;;;;;3.00;2.17;;;9.50;99.90;;;;;;5015635;28;20191;-80
2023/10/06 02:05:40;;;;;;;4.90;2.30;;;9.40;99.90;;;;;;5007742;28;20703;-80
2023/10/06 02:08:09;;;;;;;3.10;2.37;;;9.50;99.90;;;;;;5009077;28;20671;-80
2023/10/06 02:10:35;;;;;;;2.53;2.00;;;9.50;99.90;;;;;;5001045;28;20191;-81
2023/10/06 02:13:01;;;;;;;4.10;2.10;;;9.40;99.90;;;;;;5016634;28;20209;-80
2023/10/06 02:15:27;;;;;;;3.50;2.10;;;9.40;99.90;;;;;;5012745;28;20207;-79
2023/10/06 02:17:52;;;;;;;3.53;2.20;;;9.40;99.90;;;;;;5009982;28;20175;-81
2023/10/06 02:22:53;;;;;;;3.97;2.13;;;9.30;99.90;;;;;;5016183;28;20202;-80
2023/10/06 02:25:20;;;;;;;3.93;2.30;;;9.40;99.90;;;;;;5015640;28;20183;-81
2023/10/06 02:27:47;;;;;;;4.30;1.90;;;9.50;99.90;;;;;;5016811;28;20210;-80
2023/10/06 02:30:15;;;;;;;3.90;2.20;;;9.50;99.90;;;;;;5006460;28;20200;-80
2023/10/06 02:32:43;;;;;;;5.03;2.10;;;9.50;99.90;;;;;;5009501;28;20171;-80
2023/10/06 02:35:09;;;;;;;2.57;1.87;;;9.40;99.90;;;;;;4997075;28;20237;-80
2023/10/06 02:37:35;;;;;;;3.40;2.00;;;9.40;99.90;;;;;;5014662;28;20265;-80
2023/10/06 02:40:00;;;;;;;3.40;2.10;;;9.40;99.90;;;;;;5031571;28;20194;-80
2023/10/06 02:42:26;;;;;;;2.43;2.10;;;9.50;99.90;;;;;;4998838;28;20731;-80
2023/10/06 02:44:53;;;;;;;2.47;1.90;;;9.50;99.90;;;;;;5008867;28;20587;-80
2023/10/06 02:47:20;;;;;;;2.97;1.70;;;9.40;99.90;;;;;;5004974;28;20227;-80
2023/10/06 02:49:48;;;;;;;2.73;2.07;;;9.30;99.90;;;;;;5009493;28;20676;-80
2023/10/06 02:52:20;;;;;;;4.00;2.17;;;9.20;99.90;;;;;;5020187;28;20289;-80
2023/10/06 02:57:35;;;;;;;2.73;1.90;;;9.10;99.90;;;;;;5007549;28;20189;-82
2023/10/06 03:00:29;;;;;;;2.70;1.90;;;9.00;99.90;;;;;;5007408;28;20235;-80
2023/10/06 03:02:48;;;;;;;5.20;2.33;;;8.90;99.90;;;;;;5009287;28;20241;-80
2023/10/06 03:05:14;;;;;;;3.70;1.80;;;8.80;99.90;;;;;;5015927;28;20187;-80
2023/10/06 03:07:43;;;;;;;2.23;2.03;;;8.80;99.90;;;;;;5014726;28;20202;-80
2023/10/06 03:10:11;;;;;;;3.33;2.17;;;8.70;99.90;;;;;;5015412;28;20206;-80
2023/10/06 03:12:39;;;;;;;5.57;2.50;;;8.70;99.90;;;;;;5013947;28;20642;-80
2023/10/06 03:15:28;;;;;;;4.37;2.50;;;8.80;99.90;;;;;;5015679;28;20259;-80
2023/10/06 03:17:54;;;;;;;4.20;2.07;;;8.70;99.90;;;;;;5014266;28;20186;-80
2023/10/06 03:20:23;;;;;;;3.37;2.30;;;8.70;99.90;;;;;;5015227;28;20195;-81
2023/10/06 03:22:49;;;;;;;3.93;2.20;;;8.70;99.90;;;;;;5015212;28;20181;-80
2023/10/06 03:25:17;;;;;;;3.57;2.10;;;8.70;99.90;;;;;;5014958;28;20186;-80
2023/10/06 03:27:45;;;;;;;3.23;2.13;;;8.70;99.90;;;;;;5001763;28;20213;-80
2023/10/06 03:30:18;;;;;;;3.90;2.00;;;8.70;99.90;;;;;;5013533;28;20230;-80
2023/10/06 03:32:48;;;;;;;3.17;2.10;;;8.70;99.90;;;;;;5014854;28;20313;-80
2023/10/06 03:46:02;;;;;;;3.27;1.97;;;9.00;99.90;;;;;;4995533;28;20222;-80
2023/10/06 03:48:31;;;;;;;3.07;2.07;;;8.90;99.90;;;;;;5021126;28;20186;-80
2023/10/06 03:50:57;;;;;;;5.00;2.30;;;8.90;99.90;;;;;;4998539;28;20208;-81
2023/10/06 03:53:24;;;;;;;5.20;2.43;;;8.80;99.90;;;;;;5013044;28;20226;-80
2023/10/06 03:55:50;;;;;;;4.43;2.30;;;8.80;99.90;;;;;;5014549;28;20280;-80
2023/10/06 03:58:17;;;;;;;4.57;2.20;;;8.90;99.90;;;;;;5014086;28;20217;-80
2023/10/06 04:00:49;;;;;;;3.83;2.00;;;8.80;99.90;;;;;;5013465;28;20191;-77
2023/10/06 04:03:17;;;;;;;3.50;2.27;;;8.70;99.90;;;;;;5028971;28;20186;-80
2023/10/06 04:05:50;;;;;;;4.47;2.27;;;8.70;99.90;;;;;;5002890;28;20263;-80
2023/10/06 04:08:23;;;;;;;3.30;1.90;;;8.70;99.90;;;;;;5002674;28;20207;-80
2023/10/06 04:10:51;;;;;;;3.07;1.97;;;8.70;99.90;;;;;;4999754;28;20251;-80
2023/10/06 04:13:17;;;;;;;3.30;2.10;;;8.70;99.90;;;;;;4998185;28;20199;-80
2023/10/06 04:15:48;;;;;;;4.83;2.13;;;8.80;99.90;;;;;;5014595;28;20186;-80
2023/10/06 04:18:17;;;;;;;4.07;2.00;;;8.80;99.90;;;;;;5006524;28;20233;-80
2023/10/06 04:20:44;;;;;;;2.60;1.93;;;8.80;99.90;;;;;;5014170;28;20191;-77
2023/10/06 04:23:14;;;;;;;3.63;1.90;;;8.80;99.90;;;;;;5013979;28;20171;-80
2023/10/06 04:25:40;;;;;;;4.47;2.10;;;8.70;99.90;;;;;;5013946;28;20198;-81
2023/10/06 04:28:11;;;;;;;3.40;2.07;;;8.80;99.90;;;;;;5012835;28;20175;-78
2023/10/06 04:30:44;;;;;;;2.17;1.97;;;8.70;99.90;;;;;;5013640;28;20191;-80
2023/10/06 04:33:11;;;;;;;3.40;2.03;;;8.60;99.90;;;;;;5013922;28;20262;-80
2023/10/06 04:35:52;;;;;;;3.63;2.00;;;8.50;99.90;;;;;;5013902;28;20171;-81
2023/10/06 04:38:19;;;;;;;2.60;1.93;;;8.50;99.90;;;;;;4996538;28;20718;-81
2023/10/06 04:40:46;;;;;;;4.40;2.57;;;8.40;99.90;;;;;;5013295;28;20202;-80
2023/10/06 04:43:17;;;;;;;4.73;2.50;;;8.40;99.90;;;;;;5012152;28;20175;-81
2023/10/06 04:45:43;;;;;;;7.23;2.97;;;8.40;99.90;;;;;;5013874;28;20182;-82
2023/10/06 04:48:09;;;;;;;3.10;2.37;;;8.30;99.90;;;;;;5014018;28;20175;-81
2023/10/06 04:50:35;;;;;;;3.17;2.47;;;8.30;99.90;;;;;;5014147;28;20269;-82
2023/10/06 04:53:01;;;;;;;2.80;2.00;;;8.30;99.90;;;;;;5005462;28;20183;-82
2023/10/06 04:55:28;;;;;;;3.10;2.13;;;8.30;99.90;;;;;;5019740;28;20206;-82
2023/10/06 04:57:55;;;;;;;3.57;2.30;;;8.40;99.90;;;;;;5012867;28;20167;-82
2023/10/06 05:00:21;;;;;;;3.33;2.00;;;8.30;99.90;;;;;;5010574;28;20199;-81
2023/10/06 05:02:52;;;;;;;3.27;1.93;;;8.30;99.90;;;;;;5005737;28;20178;-81
2023/10/06 05:05:20;;;;;;;1.97;1.30;;;8.30;99.90;;;;;;5013276;28;20705;-81
2023/10/06 05:07:50;;;;;;;2.77;1.77;;;8.40;99.90;;;;;;5008462;28;20206;-81
2023/10/06 05:10:25;;;;;;;4.50;1.73;;;8.30;99.90;;;;;;5002683;28;20647;-83
2023/10/06 05:12:52;;;;;;;2.70;2.00;;;8.30;99.90;;;;;;5012206;28;20565;-83
2023/10/06 05:15:26;;;;;;;2.67;1.90;;;8.30;99.90;;;;;;5013460;28;20171;-83
2023/10/06 05:17:58;;;;;;;2.17;1.87;;;8.30;99.90;;;;;;5013551;28;20628;-82
2023/10/06 05:20:31;;;;;;;3.10;2.03;;;8.20;99.90;;;;;;5013912;28;20426;-82
2023/10/06 05:23:05;;;;;;;4.27;2.10;;;8.20;99.90;;;;;;5012562;28;20190;-82
2023/10/06 05:25:31;;;;;;;2.63;1.80;;;8.30;99.90;;;;;;4996618;28;20182;-83
2023/10/06 05:27:59;;;;;;;2.80;1.97;;;8.40;99.90;;;;;;4995882;28;20175;-81
2023/10/06 05:30:28;;;;;;;3.63;2.07;;;8.80;99.90;;;;;;5009870;28;20205;-82
2023/10/06 05:32:58;;;;;;;2.63;1.70;;;8.80;99.90;;;;;;5012999;28;20175;-81
2023/10/06 05:35:27;;;;;;;3.73;2.00;;;8.70;99.90;;;;;;5009623;28;20178;-81
2023/10/06 05:37:53;;;;;;;3.63;2.10;;;8.70;99.90;;;;;;5006143;28;20245;-81
2023/10/06 05:40:20;;;;;;;3.67;2.10;;;8.60;99.90;;;;;;5012456;28;20202;-83
2023/10/06 05:42:49;;;;;;;3.40;1.90;;;8.40;99.90;;;;;;5006538;28;20182;-82
2023/10/06 05:45:15;;;;;;;2.63;1.73;;;8.40;99.90;;;;;;5009648;28;20666;-83
2023/10/06 05:47:45;;;;;;;3.87;1.87;;;8.20;99.90;;;;;;5008148;28;20199;-83
2023/10/06 05:50:12;;;;;;;3.17;2.03;;;8.20;99.90;;;;;;5008936;28;20271;-84
2023/10/06 05:52:39;;;;;;;2.87;2.03;;;8.20;99.90;;;;;;5012286;28;20171;-83
2023/10/06 05:55:09;;;;;;;3.57;2.07;;;8.20;99.90;;;;;;5010833;28;20202;-81
2023/10/06 05:57:38;;;;;;;3.17;1.90;;;8.20;99.90;;;;;;5012395;28;20191;-81
2023/10/06 06:00:07;;;;;;;4.63;2.17;;;8.10;99.90;;;;;;5012085;28;20248;-81
2023/10/06 06:02:37;;;;;;;3.23;1.80;;;8.20;99.90;;;;;;5012176;28;20599;-80
2023/10/06 06:05:04;;;;;;;3.40;2.03;;;8.20;99.90;;;;;;5012325;28;20190;-81
2023/10/06 06:07:29;;;;;;;2.80;1.97;;;8.30;99.90;;;;;;5000111;28;20207;-83
2023/10/06 06:09:55;;;;;;;2.77;2.20;;;8.40;99.90;;;;;;5005302;28;20687;-82
2023/10/06 06:12:21;;;;;;;2.30;2.00;;;8.40;99.90;;;;;;5012153;28;20185;-82
2023/10/06 06:14:47;;;;;;;2.90;2.20;;;8.40;99.90;;;;;;5013505;28;20183;-81
2023/10/06 06:17:12;;;;;;;2.73;2.20;;;8.40;99.90;;;;;;5011189;28;20244;-81
2023/10/06 06:19:39;;;;;;;5.17;2.47;;;8.40;99.90;;;;;;5008174;28;20328;-81
2023/10/06 06:22:05;;;;;;;3.70;2.67;;;8.40;99.90;;;;;;4993333;28;20168;-81
2023/10/06 06:24:32;;;;;;;3.60;3.00;;;8.40;99.90;;;;;;4996804;28;20171;-80
2023/10/06 06:27:00;;;;;;;3.60;2.77;;;8.30;99.90;;;;;;4995449;28;20203;-81
2023/10/06 06:29:26;;;;;;;3.80;2.60;;;8.20;99.90;;;;;;4996798;28;20261;-81
2023/10/06 06:31:52;;;;;;;3.27;2.43;;;8.30;99.90;;;;;;4995522;28;20537;-80
2023/10/06 06:34:18;;;;;;;2.90;2.43;;;8.30;99.90;;;;;;4996798;28;20234;-81
2023/10/06 06:36:45;;;;;;;3.53;2.53;;;8.50;99.90;;;;;;4996410;28;20179;-80
2023/10/06 06:39:10;;;;;;;3.17;2.70;;;8.60;99.90;;;;;;4995577;28;20227;-80
2023/10/06 06:41:36;;;;;;;4.07;2.57;;;8.60;99.90;;;;;;4997265;28;20545;-80
2023/10/06 06:44:03;;;;;;;5.33;2.70;;;8.70;99.90;;;;;;4997082;28;20199;-81
2023/10/06 06:46:29;;;;;;;6.37;2.80;;;8.70;99.90;;;;;;4995431;28;20222;-81
2023/10/06 06:48:56;;;;;;;4.53;2.70;;;8.70;99.90;;;;;;5011873;28;20199;-81
2023/10/06 06:51:27;;;;;;;3.47;2.40;;;8.60;99.90;;;;;;5082750;23;20226;-80
2023/10/06 06:53:56;;;;;;;2.47;2.10;;;8.70;99.90;;;;;;5035814;28;20166;-80
2023/10/06 06:56:24;;;;;;;3.67;2.40;;;8.70;99.90;;;;;;5035522;28;20193;-80
2023/10/06 06:58:51;;;;;;;5.17;3.10;;;8.70;99.90;;;;;;5017942;28;20665;-81
2023/10/06 07:01:17;;;;;;;3.93;2.70;;;8.80;99.90;;;;;;5017226;28;20678;-80
2023/10/06 07:03:43;;;;;;;4.13;2.90;;;8.90;99.90;;;;;;5035507;28;20205;-80
2023/10/06 07:06:16;;;;;;;3.20;2.53;;;8.90;99.90;;;;;;5035226;28;20613;-80
2023/10/06 07:08:46;;;;;;;5.83;3.20;;;9.00;99.90;;;;;;5035036;28;20167;-80
2023/10/06 07:11:13;;;;;;;5.63;3.33;;;9.10;99.90;;;;;;5016907;28;20289;-80
2023/10/06 07:13:39;;;;;;;5.67;3.33;;;9.20;99.90;;;;;;5017199;28;20167;-80
2023/10/06 07:16:05;;;;;;;5.93;3.80;;;9.30;99.90;;;;;;5034874;28;20201;-80
2023/10/06 07:18:36;;;;;;;9.70;3.70;;;9.40;99.90;;;;;;5017299;28;20178;-80
2023/10/06 07:21:07;;;;;;;5.87;4.00;;;9.50;99.90;;;;;;5017189;28;20356;-80
2023/10/06 07:23:34;;;;;;;7.90;4.40;;;9.70;99.90;;;;;;5035251;28;20198;-80
2023/10/06 07:26:00;;;;;;;6.67;4.40;;;9.80;99.90;;;;;;5034620;28;20666;-80
2023/10/06 07:28:27;;;;;;;6.17;4.23;;;9.90;99.90;;;;;;5035046;28;20170;-80
2023/10/06 07:30:52;;;;;;;6.30;4.50;;;10.00;99.90;;;;;;5034481;28;20187;-80
2023/10/06 07:33:18;;;;;;;8.60;4.73;;;10.10;99.90;;;;;;5034898;28;20224;-80
2023/10/06 07:35:46;;;;;;;8.50;4.43;;;10.30;99.90;;;;;;5034773;28;20667;-81
2023/10/06 07:38:12;;;;;;;8.53;4.90;;;10.40;99.90;;;;;;5016718;28;20178;-81
2023/10/06 07:40:38;;;;;;;7.30;4.80;;;10.50;99.90;;;;;;5017140;28;20201;-81
2023/10/06 07:43:05;;;;;;;7.17;4.70;;;10.70;99.90;;;;;;5016701;28;20650;-81
2023/10/06 07:45:31;;;;;;;8.10;5.27;;;10.80;99.90;;;;;;5016720;28;20198;-81
2023/10/06 07:47:57;;;;;;;8.87;4.63;;;11.00;99.90;;;;;;5016668;28;20202;-78
2023/10/06 07:50:26;;;;;;;9.90;4.80;;;11.20;99.90;;;;;;5016572;28;20216;-80
2023/10/06 07:52:52;;;;;;;9.20;4.87;;;11.40;99.90;;;;;;5016598;28;20650;-82
2023/10/06 07:55:21;;;;;;;7.93;4.73;;;11.50;99.90;;;;;;5034408;28;20253;-80
2023/10/06 07:57:48;;;;;;;8.83;4.77;;;11.70;99.90;;;;;;5025876;28;20176;-80
2023/10/06 08:00:21;;;;;;;7.40;4.23;;;11.90;99.90;;;;;;5032197;28;20689;-80
2023/10/06 08:02:47;;;;;;;6.23;3.87;;;12.00;99.90;;;;;;5028398;28;20179;-81
2023/10/06 08:05:19;;;;;;;7.67;4.20;;;12.20;99.90;;;;;;4996300;28;20175;-80
2023/10/06 08:07:44;;;;;;;4.90;3.90;;;12.30;99.90;;;;;;5011223;28;20205;-81
2023/10/06 08:10:13;;;;;;;6.77;3.60;;;12.50;99.90;;;;;;5033222;28;20194;-81
2023/10/06 08:12:43;;;;;;;6.57;3.27;;;12.60;99.90;;;;;;5033629;28;20256;-82
2023/10/06 08:15:09;;;;;;;8.80;3.70;;;12.70;99.90;;;;;;5032728;28;20178;-82
2023/10/06 08:17:36;;;;;;;6.03;3.40;;;12.90;99.90;;;;;;5032862;28;20182;-82
2023/10/06 08:20:02;;;;;;;5.60;3.90;;;13.10;99.90;;;;;;5031986;28;20287;-82
2023/10/06 08:22:30;;;;;;;4.60;3.27;;;13.20;99.90;;;;;;5033020;28;20177;-82
2023/10/06 08:24:57;;;;;;;6.23;3.00;;;13.30;99.90;;;;;;5032330;28;20181;-80
2023/10/06 08:27:23;;;;;;;5.23;2.97;;;13.40;99.90;;;;;;5032368;28;20190;-80
2023/10/06 08:29:51;;;;;;;6.13;3.03;;;13.50;99.90;;;;;;5034021;28;20194;-80
2023/10/06 08:32:17;;;;;;;6.23;3.30;;;13.50;99.90;;;;;;5033826;28;20166;-80
2023/10/06 08:34:46;;;;;;;4.47;2.53;;;13.50;99.90;;;;;;5016196;28;20532;-81
2023/10/06 08:37:12;;;;;;;6.03;3.07;;;13.60;99.90;;;;;;5032117;28;20197;-83
2023/10/06 08:39:43;;;;;;;7.10;3.30;;;13.70;99.90;;;;;;5031536;28;20195;-80
2023/10/06 08:42:11;;;;;;;6.70;3.10;;;13.80;99.90;;;;;;5031960;28;20186;-80
2023/10/06 08:44:40;;;;;;;5.90;3.17;;;13.90;99.90;;;;;;5003308;28;20242;-83
2023/10/06 08:47:12;;;;;;;5.67;2.90;;;14.00;99.90;;;;;;5032182;28;20194;-80
2023/10/06 08:49:40;;;;;;;5.20;3.00;;;14.10;99.90;;;;;;5033225;28;20194;-80
2023/10/06 08:52:09;;;;;;;4.83;3.00;;;14.20;99.90;;;;;;5032266;28;20201;-80
2023/10/06 08:54:36;;;;;;;4.30;2.60;;;14.40;99.90;;;;;;5033347;28;20189;-80
2023/10/06 08:57:03;;;;;;;4.00;2.70;;;14.50;99.90;;;;;;5032590;28;20170;-81
2023/10/06 08:59:31;;;;;;;6.53;3.00;;;14.50;99.90;;;;;;5033519;28;20182;-79
2023/10/06 09:02:01;;;;;;;4.83;2.60;;;14.60;95.80;;;;;;5033208;28;20257;-80
2023/10/06 09:04:37;;;;;;;7.83;2.97;;;14.70;54.20;;;;;;5015704;28;20233;-80
2023/10/06 09:07:12;;;;;;;5.00;3.23;;;14.70;99.90;;;;;;5031927;28;20206;-80
2023/10/06 09:09:38;;;;;;;5.73;3.00;;;14.90;90.60;;;;;;5032411;28;20193;-80
2023/10/06 09:12:04;;;;;;;6.93;3.23;;;14.90;1.00;;;;;;5033060;28;20601;-81
2023/10/06 09:14:31;;;;;;;6.90;3.00;;;15.10;94.90;;;;;;5032734;28;20698;-82
2023/10/06 09:17:01;;;;;;;4.77;2.90;;;15.00;1.00;;;;;;5031926;28;20191;-80
2023/10/06 09:19:46;;;;;;;4.67;3.03;;;14.90;1.00;;;;;;5032005;28;20650;-80
2023/10/06 09:22:12;;;;;;;5.97;3.20;;;14.90;1.00;;;;;;5033218;28;20189;-83
2023/10/06 09:24:39;;;;;;;5.93;3.23;;;15.00;1.00;;;;;;5033315;28;20174;-80
2023/10/06 09:27:21;;;;;;;6.57;3.37;;;15.10;1.00;;;;;;5015305;28;20187;-81
2023/10/06 09:29:47;;;;;;;7.23;3.40;;;15.20;1.00;;;;;;5015187;28;20194;-80
2023/10/06 09:32:21;;;;;;;7.23;3.00;;;15.20;10.60;;;;;;5032984;28;20179;-80
2023/10/06 09:34:47;;;;;;;6.57;3.20;;;15.40;1.00;;;;;;5033195;28;20265;-81
2023/10/06 09:37:22;;;;;;;5.80;3.07;;;15.60;1.00;;;;;;5031739;28;20193;-82
2023/10/06 09:39:58;;;;;;;5.77;3.20;;;15.60;1.00;;;;;;5015401;28;20201;-80
2023/10/06 09:42:31;;;;;;;6.43;3.23;;;15.60;1.00;;;;;;5032847;28;20178;-80
2023/10/06 09:45:15;;;;;;;6.73;3.20;;;15.50;1.00;;;;;;5031567;28;20213;-77
2023/10/06 09:47:51;;;;;;;5.13;3.50;;;15.40;1.00;;;;;;5033050;28;20293;-80
2023/10/06 09:50:20;;;;;;;5.57;2.77;;;15.40;1.00;;;;;;5032385;28;20205;-83
2023/10/06 09:52:50;;;;;;;5.00;2.80;;;15.30;99.90;;;;;;5030854;28;20557;-80
2023/10/06 09:55:17;;;;;;;5.20;2.70;;;15.30;1.00;;;;;;5027000;28;20195;-81
2023/10/06 09:57:47;;;;;;;6.67;3.00;;;15.40;1.00;;;;;;5034183;28;20174;-81
2023/10/06 10:00:17;;;;;;;5.70;2.43;;;15.40;1.00;;;;;;5035280;28;20202;-81
2023/10/06 10:02:47;;;;;;;5.83;2.43;;;15.30;99.90;;;;;;5028802;28;20171;-84
2023/10/06 10:05:18;;;;;;;4.73;2.90;;;15.40;1.00;;;;;;5033209;28;20269;-83
2023/10/06 10:07:46;;;;;;;4.23;2.40;;;15.50;1.00;;;;;;5016745;28;20202;-81
2023/10/06 10:10:13;;;;;;;5.43;2.37;;;15.60;1.00;;;;;;5032758;28;20190;-80
2023/10/06 10:13:07;;;;;;;4.67;2.33;;;15.50;99.90;;;;;;5035980;28;20182;-80
2023/10/06 10:15:58;;;;;;;4.67;2.20;;;15.50;99.90;;;;;;5018501;28;20171;-79
2023/10/06 10:18:33;;;;;;;5.53;2.20;;;15.60;99.90;;;;;;5018335;28;20179;-81
2023/10/06 10:21:00;;;;;;;3.57;2.10;;;15.80;99.90;;;;;;5017844;28;20241;-81
2023/10/06 10:23:31;;;;;;;4.30;2.30;;;16.10;4.70;;;;;;5035150;28;20170;-80
2023/10/06 10:26:22;;;;;;;4.63;2.07;;;16.20;99.90;;;;;;5036020;28;20170;-80
2023/10/06 10:29:16;;;;;;;4.53;2.23;;;16.20;99.90;;;;;;5034049;28;20170;-81
2023/10/06 10:31:42;;;;;;;4.10;2.17;;;16.20;1.00;;;;;;5006174;28;20181;-81
2023/10/06 10:34:20;;;;;;;4.80;2.57;;;16.30;99.90;;;;;;5036061;28;20170;-81
2023/10/06 10:36:48;;;;;;;6.27;2.67;;;16.50;99.90;;;;;;5018732;28;20174;-81
2023/10/06 10:39:18;;;;;;;4.27;2.60;;;16.70;99.90;;;;;;5037051;28;20186;-80
2023/10/06 10:41:45;;;;;;;4.13;2.23;;;16.50;99.90;;;;;;5036487;28;20175;-79
2023/10/06 10:44:14;;;;;;;4.40;2.20;;;16.80;1.00;;;;;;5035330;28;20180;-79
2023/10/06 10:46:52;;;;;;;4.67;2.47;;;16.80;99.90;;;;;;5035250;28;20202;-79
2023/10/06 10:49:20;;;;;;;4.43;2.17;;;16.80;99.90;;;;;;5036599;28;20189;-79
2023/10/06 10:51:51;;;;;;;4.83;1.87;;;17.00;99.90;;;;;;5018747;28;20182;-79
2023/10/06 10:54:22;;;;;;;5.53;2.20;;;17.00;99.90;;;;;;5018491;28;20171;-80
2023/10/06 10:56:51;;;;;;;3.97;1.80;;;17.00;22.30;;;;;;5018577;28;20185;-80
2023/10/06 10:59:20;;;;;;;3.47;2.00;;;16.80;99.90;;;;;;5035973;28;20166;-79
2023/10/06 11:01:53;;;;;;;4.23;2.10;;;16.90;99.90;;;;;;5035790;28;20185;-80
2023/10/06 11:04:31;;;;;;;5.23;2.00;;;17.10;1.00;;;;;;5035968;28;20263;-80
2023/10/06 11:07:15;;;;;;;4.93;1.93;;;17.20;99.90;;;;;;5036030;28;20561;-80
2023/10/06 11:09:46;;;;;;;3.53;1.70;;;17.30;1.00;;;;;;5035025;28;20269;-80
2023/10/06 11:12:30;;;;;;;4.23;2.33;;;17.40;99.90;;;;;;5035603;28;20194;-80
2023/10/06 11:15:12;;;;;;;4.80;2.17;;;17.50;1.00;;;;;;5018130;28;20185;-80
2023/10/06 11:17:38;;;;;;;3.60;2.00;;;17.60;1.00;;;;;;5036159;28;20204;-80
2023/10/06 11:20:13;;;;;;;2.93;1.90;;;17.60;1.00;;;;;;5017726;28;20202;-80
2023/10/06 11:22:59;;;;;;;4.67;2.33;;;17.40;1.00;;;;;;5015668;28;20252;-79
2023/10/06 11:25:29;;;;;;;4.67;2.17;;;17.30;99.90;;;;;;5017157;28;20182;-79
2023/10/06 11:28:04;;;;;;;5.73;2.17;;;17.50;93.90;;;;;;5035242;28;20194;-80
2023/10/06 11:30:38;;;;;;;4.70;2.20;;;18.00;1.00;;;;;;5035034;28;20229;-80
2023/10/06 11:33:05;;;;;;;4.53;2.20;;;18.10;99.90;;;;;;5017294;28;20174;-80
2023/10/06 11:35:35;;;;;;;3.83;2.00;;;18.10;1.00;;;;;;5034979;28;20659;-79
2023/10/06 11:38:04;;;;;;;6.80;2.27;;;18.00;1.00;;;;;;5034546;28;20174;-79
2023/10/06 11:40:31;;;;;;;4.53;2.00;;;18.00;1.00;;;;;;5016649;28;20202;-79
2023/10/06 11:43:12;;;;;;;4.17;2.20;;;18.00;99.90;;;;;;5034820;28;20202;-80
2023/10/06 11:45:39;;;;;;;4.47;2.00;;;18.20;99.90;;;;;;5017125;28;20277;-79
2023/10/06 11:48:05;;;;;;;3.57;2.20;;;18.70;1.00;;;;;;5017403;28;20209;-81
2023/10/06 11:50:34;;;;;;;3.73;2.00;;;19.10;46.40;;;;;;5034772;28;20256;-80
2023/10/06 11:52:59;;;;;;;4.50;1.83;;;19.00;99.90;;;;;;5028608;28;20174;-79
2023/10/06 11:55:37;;;;;;;4.43;2.20;;;18.90;99.90;;;;;;5000719;28;20179;-80
2023/10/06 11:58:08;;;;;;;5.30;2.17;;;18.90;99.90;;;;;;5017417;28;20600;-79
2023/10/06 12:00:36;;;;;;;4.30;1.90;;;18.80;13.70;;;;;;5008587;28;20194;-80
2023/10/06 12:03:01;;;;;;;3.37;2.00;;;18.50;1.00;;;;;;5016909;28;20182;-80
2023/10/06 12:05:27;;;;;;;2.58;1.95;;;18.40;99.90;;;;;;5000162;28;20616;-79
2023/10/06 12:07:59;;;;;;;3.30;2.00;;;18.50;1.00;;;;;;5017382;28;20632;-81
2023/10/06 12:10:25;;;;;;;3.93;2.00;;;18.40;1.00;;;;;;5024423;28;20210;-82
2023/10/06 12:12:51;;;;;;;4.30;1.83;;;18.50;1.00;;;;;;4997201;28;20259;-82
2023/10/06 12:15:18;;;;;;;4.23;2.20;;;18.80;1.00;;;;;;5022832;28;20171;-79
2023/10/06 12:17:45;;;;;;;3.37;1.80;;;18.70;1.00;;;;;;5031073;28;20186;-79
2023/10/06 12:20:15;;;;;;;3.67;1.73;;;18.70;1.00;;;;;;5032786;28;20205;-79
2023/10/06 12:22:42;;;;;;;3.72;1.85;;;19.00;96.00;;;;;;4997127;28;20204;-79
2023/10/06 12:25:12;;;;;;;3.37;2.00;;;18.80;1.00;;;;;;4996856;28;20183;-79
2023/10/06 12:27:43;;;;;;;4.53;1.80;;;18.20;99.90;;;;;;5015220;28;20245;-79
2023/10/06 12:30:10;;;;;;;4.57;2.20;;;18.20;1.00;;;;;;5014859;28;20278;-79
2023/10/06 12:32:36;;;;;;;3.37;1.83;;;18.40;1.00;;;;;;4997302;28;20285;-79
2023/10/06 12:35:08;;;;;;;3.87;2.00;;;18.10;1.00;;;;;;4996377;28;20280;-82
2023/10/06 12:37:40;;;;;;;4.53;2.30;;;17.90;99.90;;;;;;5013627;28;20179;-79
2023/10/06 12:40:08;;;;;;;3.43;1.80;;;17.90;1.00;;;;;;5014254;28;20198;-80
2023/10/06 12:42:35;;;;;;;5.80;1.90;;;18.20;1.00;;;;;;4996247;28;20175;-80
2023/10/06 12:45:00;;;;;;;3.00;1.90;;;18.50;99.90;;;;;;5013891;28;20175;-80
2023/10/06 12:47:26;;;;;;;4.73;2.00;;;18.30;99.90;;;;;;5014139;28;20706;-79
2023/10/06 12:49:52;;;;;;;4.23;2.00;;;18.30;1.00;;;;;;5022301;28;20202;-80
2023/10/06 12:52:17;;;;;;;3.63;1.80;;;18.30;1.00;;;;;;5015947;28;20201;-83
2023/10/06 12:54:44;;;;;;;4.10;2.00;;;18.40;1.00;;;;;;5016213;28;20174;-80
2023/10/06 12:57:10;;;;;;;3.00;1.73;;;18.60;99.90;;;;;;5033707;28;20179;-79
2023/10/06 12:59:35;;;;;;;6.37;2.10;;;19.00;7.70;;;;;;5015486;28;20228;-79
2023/10/06 13:02:04;;;;;;;3.47;1.90;;;19.10;1.00;;;;;;5015407;28;20179;-79
2023/10/06 13:04:30;;;;;;;4.57;1.90;;;19.00;1.00;;;;;;5015605;28;20175;-79
2023/10/06 13:06:58;;;;;;;4.68;1.95;;;19.00;99.90;;;;;;5033519;28;20230;-80
2023/10/06 13:09:27;;;;;;;3.03;2.03;;;19.40;99.90;;;;;;5033507;28;20603;-80
2023/10/06 13:11:53;;;;;;;3.00;1.70;;;19.70;99.90;;;;;;5033308;28;20173;-80
2023/10/06 13:14:18;;;;;;;4.20;2.30;;;19.80;96.30;;;;;;5033530;28;20166;-79
2023/10/06 13:16:45;;;;;;;3.25;1.90;;;19.80;1.00;;;;;;5015745;28;20198;-84
2023/10/06 13:19:10;;;;;;;5.25;2.42;;;19.80;99.90;;;;;;5033177;28;20182;-80
2023/10/06 13:21:36;;;;;;;4.03;2.20;;;19.50;1.00;;;;;;5026649;28;20198;-80